Time;durP1;ratioP1;P1;durP2;ratioP2;P2;SDS_P1;SDS_P2;PMS_P1;PMS_P2;Temp;Humidity;BMP_temperature;BMP_pressure;BME280_temperature;BME280_humidity;BME280_pressure;Samples;Min_cycle;Max_cycle;Signal;HPM_P1;HPM_P2
2023/10/03 00:01:03;;;;;;;15.00;3.70;;;;;;;15.63;75.73;100594.84;54969;1275;1016195;-62
2023/10/03 00:03:43;;;;;;;15.70;3.50;;;;;;;15.61;75.95;100596.46;54934;1275;1015863;-61
2023/10/03 00:06:14;;;;;;;16.80;4.00;;;;;;;15.51;75.93;100595.56;54955;1274;1015750;-62
2023/10/03 00:08:45;;;;;;;15.80;4.50;;;;;;;15.47;76.13;100590.59;54965;1274;1015955;-61
2023/10/03 00:11:20;;;;;;;15.00;3.90;;;;;;;15.46;76.02;100588.54;54945;1275;1015563;-61
2023/10/03 00:13:51;;;;;;;19.30;4.90;;;;;;;15.42;76.30;100585.02;54940;1275;1015443;-60
2023/10/03 00:16:22;;;;;;;18.20;4.80;;;;;;;15.46;76.15;100584.45;54941;1275;1015914;-62
2023/10/03 00:18:53;;;;;;;21.00;5.40;;;;;;;15.39;76.18;100579.73;54960;1275;1015972;-61
2023/10/03 00:21:24;;;;;;;16.60;5.60;;;;;;;15.40;76.13;100575.27;54895;1269;1016060;-60
2023/10/03 00:23:55;;;;;;;18.70;4.70;;;;;;;15.38;75.88;100569.58;54950;1275;1015697;-63
2023/10/03 00:26:28;;;;;;;17.00;4.70;;;;;;;15.32;76.13;100566.14;54949;1274;1015567;-63
2023/10/03 00:28:59;;;;;;;16.20;4.90;;;;;;;15.29;76.31;100568.17;54947;1275;1016030;-62
2023/10/03 00:31:30;;;;;;;21.10;4.20;;;;;;;15.25;76.41;100558.11;54942;1275;1015685;-63
2023/10/03 00:34:01;;;;;;;13.60;3.20;;;;;;;15.20;76.44;100558.76;54967;1274;1015559;-63
2023/10/03 00:36:32;;;;;;;15.40;4.00;;;;;;;15.16;76.69;100560.73;54907;1259;1015756;-63
2023/10/03 00:39:06;;;;;;;15.70;3.70;;;;;;;15.14;76.83;100557.00;54953;1274;1015850;-63
2023/10/03 00:41:37;;;;;;;15.30;4.30;;;;;;;15.13;77.04;100551.61;54978;1274;1016116;-63
2023/10/03 00:44:10;;;;;;;11.90;3.10;;;;;;;15.09;76.92;100549.40;54945;1267;1015529;-62
2023/10/03 00:46:41;;;;;;;16.90;4.40;;;;;;;15.02;77.09;100553.13;54940;1275;1016405;-61
2023/10/03 00:49:14;;;;;;;15.10;4.40;;;;;;;14.95;77.12;100553.35;54930;1275;1015451;-61
2023/10/03 00:51:46;;;;;;;19.60;4.70;;;;;;;14.91;77.46;100550.21;54931;1272;1015819;-62
2023/10/03 00:54:18;;;;;;;17.70;3.60;;;;;;;14.89;77.38;100548.31;54926;1275;1015511;-61
2023/10/03 00:56:50;;;;;;;13.70;3.80;;;;;;;14.88;77.31;100540.00;54939;1275;1016066;-61
2023/10/03 00:59:21;;;;;;;16.40;4.10;;;;;;;14.87;77.35;100535.61;54936;1275;1015864;-61
2023/10/03 01:01:58;;;;;;;17.60;3.10;;;;;;;14.90;77.64;100531.45;54956;1274;1015947;-61
2023/10/03 01:04:35;;;;;;;16.40;3.50;;;;;;;14.93;77.50;100523.38;53329;1275;1015823;-61
2023/10/03 01:07:07;;;;;;;16.20;4.60;;;;;;;14.94;77.54;100521.66;54949;1274;1015296;-61
2023/10/03 01:09:38;;;;;;;16.70;3.60;;;;;;;14.91;77.77;100519.28;54942;1275;1015720;-61
2023/10/03 01:12:08;;;;;;;17.50;3.80;;;;;;;14.96;77.89;100518.76;54928;1275;1015445;-61
2023/10/03 01:14:42;;;;;;;18.00;4.10;;;;;;;14.98;77.67;100515.77;54957;1275;1015893;-62
2023/10/03 01:17:15;;;;;;;13.60;4.00;;;;;;;14.98;77.86;100513.90;54921;1275;1015300;-61
2023/10/03 01:19:47;;;;;;;24.40;4.80;;;;;;;14.94;77.97;100512.55;54951;1275;1016135;-62
2023/10/03 01:22:19;;;;;;;15.30;3.90;;;;;;;14.92;78.15;100514.69;54954;1275;1015567;-61
2023/10/03 01:24:50;;;;;;;19.50;5.00;;;;;;;14.89;78.43;100514.10;54957;1275;1016053;-62
2023/10/03 01:27:21;;;;;;;17.70;3.80;;;;;;;14.88;78.68;100511.91;54926;1275;1015295;-61
2023/10/03 01:29:52;;;;;;;14.90;4.00;;;;;;;14.82;78.65;100505.18;54947;1275;1017500;-61
2023/10/03 01:32:23;;;;;;;17.70;5.60;;;;;;;14.78;78.58;100505.77;54935;1275;1016270;-62
2023/10/03 01:34:54;;;;;;;13.40;3.90;;;;;;;14.75;78.81;100510.08;54943;1275;1015807;-61
2023/10/03 01:37:25;;;;;;;16.20;4.20;;;;;;;14.74;78.59;100506.00;54926;1275;1016133;-61
2023/10/03 01:39:56;;;;;;;14.70;3.90;;;;;;;14.68;78.50;100505.28;54930;1262;1016265;-62
2023/10/03 01:42:27;;;;;;;13.70;3.60;;;;;;;14.68;78.61;100511.92;54928;1274;1015935;-62
2023/10/03 01:44:59;;;;;;;16.20;4.30;;;;;;;14.68;78.52;100506.61;54949;1274;1016125;-62
2023/10/03 01:47:30;;;;;;;19.40;5.00;;;;;;;14.66;78.34;100506.86;54933;1274;1016153;-61
2023/10/03 01:50:01;;;;;;;16.20;4.60;;;;;;;14.62;78.34;100502.75;54926;1267;1015669;-61
2023/10/03 01:52:32;;;;;;;17.10;5.60;;;;;;;14.57;78.53;100500.06;54933;1275;1015811;-60
2023/10/03 01:55:04;;;;;;;13.50;4.30;;;;;;;14.52;78.61;100494.65;54904;1275;1015639;-61
2023/10/03 01:57:36;;;;;;;19.30;5.20;;;;;;;14.53;78.58;100493.73;54937;1275;1015845;-61
2023/10/03 02:00:20;;;;;;;17.40;4.10;;;;;;;14.50;78.67;100490.35;54948;1274;1015786;-61
2023/10/03 02:02:53;;;;;;;17.40;4.70;;;;;;;14.50;78.69;100484.63;54905;1275;1016046;-62
2023/10/03 02:05:25;;;;;;;17.00;4.60;;;;;;;14.48;78.79;100484.87;54933;1275;1015666;-60
2023/10/03 02:07:58;;;;;;;18.40;5.00;;;;;;;14.43;78.79;100481.81;54924;1275;1015801;-60
2023/10/03 02:10:29;;;;;;;15.90;4.10;;;;;;;14.40;79.12;100481.64;54917;1275;1015645;-60
2023/10/03 02:12:59;;;;;;;15.10;4.30;;;;;;;14.38;79.13;100477.40;54900;1275;1015973;-59
2023/10/03 02:15:30;;;;;;;15.20;4.00;;;;;;;14.36;79.54;100480.84;54946;1275;1015896;-60
2023/10/03 02:18:03;;;;;;;15.90;4.10;;;;;;;14.31;79.59;100475.96;54729;1271;1255891;-60
2023/10/03 02:20:47;;;;;;;16.60;4.10;;;;;;;14.30;79.73;100473.86;54918;1275;1015357;-60
2023/10/03 02:23:20;;;;;;;13.00;3.80;;;;;;;14.30;79.77;100466.05;54934;1275;1015342;-60
2023/10/03 02:25:51;;;;;;;15.40;3.90;;;;;;;14.25;79.78;100463.38;54941;1275;1015470;-59
2023/10/03 02:28:26;;;;;;;17.40;4.70;;;;;;;14.22;79.86;100456.21;54928;1275;1015933;-60
2023/10/03 02:30:57;;;;;;;15.90;4.10;;;;;;;14.20;80.09;100450.84;54924;1274;1015505;-60
2023/10/03 02:33:28;;;;;;;17.00;4.30;;;;;;;14.22;80.15;100444.27;54912;1275;1015280;-59
2023/10/03 02:35:59;;;;;;;18.80;4.10;;;;;;;14.20;80.08;100441.02;54943;1274;1016259;-60
2023/10/03 02:38:35;;;;;;;14.00;3.90;;;;;;;14.20;79.92;100437.27;54918;1275;1015493;-60
2023/10/03 02:41:07;;;;;;;13.90;3.50;;;;;;;14.14;80.05;100433.06;54919;1275;1015800;-60
2023/10/03 02:43:42;;;;;;;18.10;4.50;;;;;;;14.12;80.00;100428.83;54936;1275;1015149;-59
2023/10/03 02:46:13;;;;;;;15.80;4.30;;;;;;;14.13;79.99;100425.27;54933;1275;1015991;-59
2023/10/03 02:48:44;;;;;;;16.50;4.50;;;;;;;14.12;80.25;100422.23;54951;1275;1016150;-60
2023/10/03 02:51:15;;;;;;;18.80;4.30;;;;;;;14.11;80.18;100421.05;54919;1275;1015768;-60
2023/10/03 02:53:46;;;;;;;15.70;3.80;;;;;;;14.10;80.32;100418.85;54926;1275;1015994;-59
2023/10/03 02:56:17;;;;;;;13.80;3.40;;;;;;;14.09;80.27;100415.33;54972;1271;1016104;-59
2023/10/03 02:58:48;;;;;;;16.10;2.80;;;;;;;14.09;80.39;100418.75;54930;1275;1015738;-60
2023/10/03 03:01:21;;;;;;;16.00;4.20;;;;;;;14.08;80.36;100415.32;54951;1275;1015793;-60
2023/10/03 03:03:52;;;;;;;13.90;4.10;;;;;;;14.06;80.24;100411.89;54962;1275;1015513;-60
2023/10/03 03:06:23;;;;;;;14.80;3.60;;;;;;;14.05;80.18;100410.50;54952;1275;1015410;-60
2023/10/03 03:08:56;;;;;;;15.20;3.90;;;;;;;14.04;80.26;100408.45;54927;1275;1015377;-60
2023/10/03 03:11:28;;;;;;;16.90;4.30;;;;;;;13.97;80.25;100401.29;54930;1275;1015955;-60
2023/10/03 03:13:59;;;;;;;15.70;4.30;;;;;;;13.95;80.54;100397.91;54934;1275;1016541;-60
2023/10/03 03:16:30;;;;;;;16.10;3.80;;;;;;;13.95;80.34;100392.41;54931;1275;1015639;-60
2023/10/03 03:19:04;;;;;;;16.70;4.10;;;;;;;13.92;80.56;100388.76;54910;1275;1015661;-60
2023/10/03 03:21:36;;;;;;;20.00;4.40;;;;;;;13.87;80.67;100385.85;54942;1275;1015996;-60
2023/10/03 03:24:10;;;;;;;15.20;4.40;;;;;;;13.88;81.04;100378.36;54955;1271;1016215;-61
2023/10/03 03:26:47;;;;;;;15.90;3.50;;;;;;;13.88;80.86;100380.50;54942;1274;1016124;-60
2023/10/03 03:29:21;;;;;;;23.20;4.90;;;;;;;13.85;80.90;100384.16;54935;1275;1015317;-61
2023/10/03 03:31:53;;;;;;;12.30;3.20;;;;;;;13.84;80.96;100381.34;54960;1267;1015225;-61
2023/10/03 03:34:24;;;;;;;16.20;4.50;;;;;;;13.82;80.74;100385.92;54964;1275;1016226;-61
2023/10/03 03:36:55;;;;;;;14.70;3.60;;;;;;;13.81;80.96;100386.17;54924;1275;1015672;-61
2023/10/03 03:39:27;;;;;;;17.40;4.20;;;;;;;13.77;80.72;100380.94;54927;1275;1016127;-61
2023/10/03 03:41:59;;;;;;;13.90;3.60;;;;;;;13.69;80.89;100384.35;54949;1275;1015780;-62
2023/10/03 03:44:29;;;;;;;14.10;3.60;;;;;;;13.66;80.68;100373.48;54923;1275;1016071;-61
2023/10/03 03:47:00;;;;;;;17.10;4.10;;;;;;;13.66;80.84;100372.68;54938;1275;1016317;-62
2023/10/03 03:49:31;;;;;;;13.20;3.20;;;;;;;13.70;80.96;100369.09;54886;1275;1016018;-61
2023/10/03 03:52:02;;;;;;;13.00;3.40;;;;;;;13.70;80.82;100368.42;54951;1274;1015865;-61
2023/10/03 03:54:34;;;;;;;11.70;3.10;;;;;;;13.70;81.14;100367.36;54948;1275;1015361;-62
2023/10/03 03:57:06;;;;;;;17.60;3.90;;;;;;;13.74;80.96;100359.11;54690;1269;1016041;-61
2023/10/03 03:59:38;;;;;;;17.10;3.70;;;;;;;13.72;80.96;100358.81;54916;1274;1015722;-62
2023/10/03 04:02:09;;;;;;;20.60;4.70;;;;;;;13.71;80.81;100358.30;54960;1274;1015411;-60
2023/10/03 04:04:40;;;;;;;17.70;4.80;;;;;;;13.72;80.92;100355.23;54968;1274;1015441;-62
2023/10/03 04:07:11;;;;;;;19.60;3.60;;;;;;;13.69;80.95;100355.21;54961;1274;1016157;-61
2023/10/03 04:09:42;;;;;;;15.30;3.20;;;;;;;13.71;80.97;100353.18;54924;1275;1015617;-61
2023/10/03 04:12:14;;;;;;;12.20;3.60;;;;;;;13.65;81.05;100350.49;54907;1275;1015462;-61
2023/10/03 04:14:45;;;;;;;16.90;3.80;;;;;;;13.61;80.86;100353.24;54933;1275;1015952;-61
2023/10/03 04:17:16;;;;;;;16.00;3.90;;;;;;;13.59;80.79;100351.30;54930;1275;1015324;-61
2023/10/03 04:19:47;;;;;;;16.30;3.40;;;;;;;13.60;81.02;100350.85;54943;1275;1015417;-61
2023/10/03 04:22:18;;;;;;;17.50;3.50;;;;;;;13.60;80.88;100345.54;54900;1275;1015414;-61
2023/10/03 04:24:49;;;;;;;21.50;4.50;;;;;;;13.58;80.80;100346.14;54944;1275;1015392;-61
2023/10/03 04:27:20;;;;;;;18.00;4.00;;;;;;;13.49;81.07;100342.34;54930;1275;1015923;-61
2023/10/03 04:29:51;;;;;;;15.50;3.90;;;;;;;13.50;80.95;100334.45;54888;1272;1015337;-61
2023/10/03 04:32:23;;;;;;;16.20;3.70;;;;;;;13.50;81.12;100334.59;54937;1272;1016006;-60
2023/10/03 04:34:54;;;;;;;18.50;3.70;;;;;;;13.47;80.89;100333.39;54901;1275;1015577;-60
2023/10/03 04:37:25;;;;;;;16.00;3.60;;;;;;;13.45;81.24;100330.83;54906;1267;1015822;-59
2023/10/03 04:39:56;;;;;;;17.50;5.10;;;;;;;13.43;81.06;100330.56;54906;1272;1015556;-59
2023/10/03 04:42:28;;;;;;;22.50;5.30;;;;;;;13.34;81.00;100331.14;54975;1274;1015817;-57
2023/10/03 04:44:59;;;;;;;18.10;4.50;;;;;;;13.29;81.07;100329.15;54922;1275;1016165;-62
2023/10/03 04:47:32;;;;;;;17.70;4.50;;;;;;;13.27;81.16;100315.88;54938;1275;1016022;-67
2023/10/03 04:50:04;;;;;;;15.40;3.30;;;;;;;13.23;81.21;100320.54;54932;1269;1015231;-62
2023/10/03 04:52:35;;;;;;;15.40;3.50;;;;;;;13.14;80.99;100320.75;54916;1274;1016091;-61
2023/10/03 04:55:07;;;;;;;17.00;3.70;;;;;;;13.08;81.21;100318.45;54927;1275;1015551;-67
2023/10/03 04:57:54;;;;;;;16.00;3.90;;;;;;;13.05;81.23;100315.91;54897;1269;1016324;-61
2023/10/03 05:00:27;;;;;;;19.20;4.80;;;;;;;13.03;81.34;100315.58;54884;1268;1016164;-60
2023/10/03 05:02:58;;;;;;;20.40;5.20;;;;;;;13.04;81.27;100312.34;54930;1268;1015482;-62
2023/10/03 05:05:32;;;;;;;17.10;4.50;;;;;;;13.02;81.25;100306.59;54943;1269;1015594;-64
2023/10/03 05:08:03;;;;;;;19.10;5.60;;;;;;;13.05;81.18;100305.11;53447;1275;1016497;-60
2023/10/03 05:10:36;;;;;;;22.10;7.40;;;;;;;13.03;81.31;100301.67;52864;1275;1016282;-61
2023/10/03 05:13:08;;;;;;;19.60;5.10;;;;;;;12.98;81.37;100298.96;52848;1269;1016298;-63
2023/10/03 05:15:39;;;;;;;20.90;5.50;;;;;;;12.94;81.38;100296.68;52995;1275;1016358;-61
2023/10/03 05:18:10;;;;;;;21.60;5.40;;;;;;;12.94;81.64;100293.16;52916;1275;1016323;-60
2023/10/03 05:20:42;;;;;;;20.90;5.10;;;;;;;12.93;81.69;100294.17;52980;1267;1015773;-62
2023/10/03 05:23:14;;;;;;;15.30;3.80;;;;;;;12.90;81.88;100290.27;52910;1269;1016405;-61
2023/10/03 05:25:45;;;;;;;18.80;3.90;;;;;;;12.89;81.98;100287.30;52880;1274;1015822;-61
2023/10/03 05:28:17;;;;;;;21.40;6.00;;;;;;;12.89;82.32;100285.16;52844;1274;1016245;-61
2023/10/03 05:30:48;;;;;;;20.90;5.50;;;;;;;12.92;82.70;100284.17;54953;1269;1015949;-61
2023/10/03 05:33:20;;;;;;;21.20;4.90;;;;;;;12.97;82.54;100279.02;54914;1267;1015610;-61
2023/10/03 05:35:51;;;;;;;20.00;4.20;;;;;;;13.04;82.94;100282.15;54913;1275;1015836;-62
2023/10/03 05:38:23;;;;;;;18.10;4.00;;;;;;;13.10;83.02;100276.93;54940;1275;1015649;-63
2023/10/03 05:40:54;;;;;;;23.50;5.20;;;;;;;13.16;82.83;100271.43;54963;1270;1015731;-63
2023/10/03 05:43:25;;;;;;;22.80;4.80;;;;;;;13.21;83.16;100270.66;54917;1271;1016134;-62
2023/10/03 05:45:57;;;;;;;21.50;4.30;;;;;;;13.26;83.03;100273.26;54911;1267;1016243;-63
2023/10/03 05:48:28;;;;;;;21.90;5.00;;;;;;;13.32;83.41;100263.83;54896;1267;1015801;-61
2023/10/03 05:50:59;;;;;;;15.20;5.00;;;;;;;13.38;83.47;100266.94;54868;1266;1015886;-64
2023/10/03 05:53:30;;;;;;;19.00;3.60;;;;;;;13.45;83.57;100266.39;54899;1269;1016220;-64
2023/10/03 05:56:04;;;;;;;18.70;3.70;;;;;;;13.51;83.62;100262.09;54925;1268;1016036;-61
2023/10/03 05:58:38;;;;;;;13.20;2.90;;;;;;;13.57;84.07;100260.91;54906;1275;1015593;-63
2023/10/03 06:01:12;;;;;;;22.10;4.80;;;;;;;13.64;84.24;100262.20;54916;1274;1015291;-61
2023/10/03 06:03:43;;;;;;;20.00;4.30;;;;;;;13.70;84.36;100260.08;54936;1275;1015763;-60
2023/10/03 06:06:15;;;;;;;18.60;5.60;;;;;;;13.79;84.40;100259.27;54908;1271;1015711;-59
2023/10/03 06:08:49;;;;;;;16.80;4.10;;;;;;;13.87;84.88;100260.49;54964;1274;1015569;-59
2023/10/03 06:11:20;;;;;;;17.50;4.50;;;;;;;13.95;85.09;100260.02;54938;1272;1016201;-60
2023/10/03 06:13:51;;;;;;;18.20;3.90;;;;;;;14.02;85.08;100253.38;54901;1271;1015695;-60
2023/10/03 06:16:22;;;;;;;20.10;4.30;;;;;;;14.08;85.16;100250.05;54931;1275;1015586;-60
2023/10/03 06:18:53;;;;;;;14.10;3.50;;;;;;;14.17;85.41;100246.27;54933;1274;1015451;-60
2023/10/03 06:21:24;;;;;;;14.70;3.60;;;;;;;14.24;85.59;100247.35;54934;1275;1016096;-60
2023/10/03 06:23:55;;;;;;;18.80;4.70;;;;;;;14.32;85.56;100245.89;54919;1275;1015656;-60
2023/10/03 06:26:26;;;;;;;16.70;3.30;;;;;;;14.41;85.60;100243.83;54936;1272;1016038;-60
2023/10/03 06:28:57;;;;;;;22.10;4.80;;;;;;;14.48;86.20;100247.75;54918;1269;1015814;-59
2023/10/03 06:31:28;;;;;;;19.50;4.20;;;;;;;14.61;86.08;100251.36;54994;1275;1016088;-59
2023/10/03 06:34:00;;;;;;;16.30;3.70;;;;;;;14.72;85.73;100251.63;54898;1275;1015855;-59
2023/10/03 06:36:31;;;;;;;14.30;3.10;;;;;;;14.79;86.63;100250.88;54909;1275;1015542;-59
2023/10/03 06:39:04;;;;;;;16.00;3.80;;;;;;;14.86;86.69;100253.26;54956;1275;1016519;-59
2023/10/03 06:41:35;;;;;;;18.70;3.20;;;;;;;14.99;86.84;100246.42;54935;1275;1015935;-59
2023/10/03 06:44:06;;;;;;;17.60;4.00;;;;;;;15.09;87.03;100241.06;54938;1272;1015967;-60
2023/10/03 06:46:38;;;;;;;19.80;5.10;;;;;;;15.20;87.00;100242.95;54922;1275;1015917;-62
2023/10/03 06:49:10;;;;;;;18.40;3.80;;;;;;;15.31;87.11;100241.33;54943;1275;1015674;-62
2023/10/03 06:51:42;;;;;;;19.60;3.90;;;;;;;15.40;87.16;100237.34;54933;1275;1015873;-61
2023/10/03 06:54:13;;;;;;;18.90;3.60;;;;;;;15.48;86.96;100232.65;54933;1275;1015893;-63
2023/10/03 06:56:44;;;;;;;12.80;3.30;;;;;;;15.58;86.96;100223.89;54918;1275;1015792;-62
2023/10/03 06:59:15;;;;;;;17.10;3.80;;;;;;;15.69;87.02;100222.40;54924;1275;1016261;-62
2023/10/03 07:01:47;;;;;;;18.90;2.90;;;;;;;15.83;86.95;100220.61;54910;1275;1015556;-62
2023/10/03 07:04:19;;;;;;;21.00;4.10;;;;;;;15.94;86.84;100213.51;54934;1275;1015128;-62
2023/10/03 07:06:50;;;;;;;18.70;3.90;;;;;;;16.05;86.92;100214.02;54964;1275;1014551;-62
2023/10/03 07:09:21;;;;;;;16.30;3.50;;;;;;;16.18;87.01;100211.02;54983;1275;1016147;-62
2023/10/03 07:11:52;;;;;;;11.80;3.10;;;;;;;16.33;86.75;100214.48;54930;1275;1015770;-61
2023/10/03 07:14:23;;;;;;;17.50;3.70;;;;;;;16.45;86.58;100207.40;54968;1275;1015440;-62
2023/10/03 07:16:55;;;;;;;16.60;3.10;;;;;;;16.60;86.40;100212.39;54919;1275;1015605;-62
2023/10/03 07:19:26;;;;;;;16.60;3.80;;;;;;;16.71;86.01;100213.58;54924;1275;1015959;-61
2023/10/03 07:21:57;;;;;;;16.20;3.70;;;;;;;16.84;85.81;100204.33;54933;1275;1015556;-63
2023/10/03 07:24:28;;;;;;;16.30;3.50;;;;;;;16.96;85.69;100203.16;54969;1275;1015705;-62
2023/10/03 07:27:03;;;;;;;15.80;3.10;;;;;;;17.08;85.51;100206.83;54959;1275;1015790;-62
2023/10/03 07:29:36;;;;;;;14.20;3.10;;;;;;;17.19;85.49;100207.60;54933;1275;1015807;-64
2023/10/03 07:32:12;;;;;;;10.70;2.70;;;;;;;17.31;85.40;100201.02;54947;1275;1015297;-62
2023/10/03 07:34:45;;;;;;;15.20;3.30;;;;;;;17.43;85.15;100197.52;54911;1275;1015260;-62
2023/10/03 07:37:17;;;;;;;17.30;4.10;;;;;;;17.57;84.70;100196.80;54957;1263;1016025;-62
2023/10/03 07:39:48;;;;;;;12.50;3.00;;;;;;;17.71;84.38;100200.96;54915;1275;1016160;-62
2023/10/03 07:42:22;;;;;;;16.70;3.70;;;;;;;17.83;84.15;100200.27;54938;1275;1016196;-65
2023/10/03 07:44:54;;;;;;;17.90;3.60;;;;;;;17.96;83.94;100197.15;54958;1275;1015649;-63
2023/10/03 07:47:25;;;;;;;18.50;3.10;;;;;;;18.08;83.59;100194.79;54948;1275;1015468;-62
2023/10/03 07:49:58;;;;;;;16.50;3.90;;;;;;;18.20;83.15;100192.64;54957;1275;1016603;-63
2023/10/03 07:52:29;;;;;;;16.30;3.00;;;;;;;18.33;82.97;100193.51;54927;1275;1016664;-62
2023/10/03 07:55:00;;;;;;;17.50;3.50;;;;;;;18.43;82.89;100192.34;54967;1275;1015347;-62
2023/10/03 07:57:31;;;;;;;13.70;3.80;;;;;;;18.54;82.30;100189.27;54959;1275;1016002;-62
2023/10/03 08:00:07;;;;;;;14.70;2.70;;;;;;;18.65;81.99;100182.70;54910;1275;1015923;-63
2023/10/03 08:02:43;;;;;;;16.90;3.00;;;;;;;18.79;81.50;100178.89;54968;1275;1015939;-60
2023/10/03 08:05:15;;;;;;;13.30;2.80;;;;;;;18.94;81.16;100182.96;54951;1275;1014218;-60
2023/10/03 08:07:47;;;;;;;14.40;2.50;;;;;;;19.05;80.57;100181.49;54940;1275;1016697;-60
2023/10/03 08:10:19;;;;;;;15.50;3.60;;;;;;;19.15;80.46;100177.95;54965;1275;1015827;-60
2023/10/03 08:12:52;;;;;;;16.90;3.00;;;;;;;19.26;79.99;100180.32;54953;1275;1015307;-60
2023/10/03 08:15:31;;;;;;;14.40;3.50;;;;;;;19.40;79.74;100181.04;54950;1273;1015294;-60
2023/10/03 08:18:04;;;;;;;14.30;3.00;;;;;;;19.54;79.41;100176.01;54972;1275;1015891;-60
2023/10/03 08:20:36;;;;;;;18.70;4.00;;;;;;;19.68;79.24;100184.65;54927;1275;1015686;-60
2023/10/03 08:23:09;;;;;;;12.80;3.10;;;;;;;19.84;78.74;100184.31;54974;1275;1015803;-60
2023/10/03 08:25:41;;;;;;;17.80;3.40;;;;;;;19.98;78.42;100183.52;54935;1275;1015730;-60
2023/10/03 08:28:17;;;;;;;17.20;3.00;;;;;;;20.11;78.07;100177.17;54901;1275;1015538;-63
2023/10/03 08:30:51;;;;;;;10.00;2.60;;;;;;;20.25;77.54;100181.77;54937;1267;1015629;-62
2023/10/03 08:33:22;;;;;;;12.00;2.50;;;;;;;20.38;77.47;100175.00;54947;1275;1015478;-62
2023/10/03 08:35:53;;;;;;;17.90;3.60;;;;;;;20.49;77.23;100172.84;54909;1265;1016553;-62
2023/10/03 08:38:24;;;;;;;15.30;3.70;;;;;;;20.57;76.81;100167.23;54940;1275;1015868;-62
2023/10/03 08:40:58;;;;;;;14.60;2.60;;;;;;;20.65;76.51;100160.73;54919;1275;1016455;-62
2023/10/03 08:43:30;;;;;;;13.30;2.70;;;;;;;20.76;75.84;100155.77;54952;1275;1016192;-62
2023/10/03 08:46:02;;;;;;;14.70;3.10;;;;;;;20.87;75.38;100154.21;54966;1275;1015379;-63
2023/10/03 08:48:35;;;;;;;15.10;3.40;;;;;;;21.00;75.06;100156.13;54894;1275;1015569;-62
2023/10/03 08:51:06;;;;;;;16.30;3.60;;;;;;;21.13;74.73;100149.35;54932;1275;1015361;-62
2023/10/03 08:53:37;;;;;;;14.30;3.10;;;;;;;21.23;74.65;100144.52;54956;1275;1015287;-63
2023/10/03 08:56:12;;;;;;;16.00;3.90;;;;;;;21.31;74.27;100140.52;54936;1275;1016636;-62
2023/10/03 08:58:48;;;;;;;13.40;3.20;;;;;;;21.40;73.80;100134.48;54948;1275;1015690;-62
2023/10/03 09:01:19;;;;;;;18.40;3.60;;;;;;;21.49;73.58;100136.73;54945;1275;1015969;-63
2023/10/03 09:03:59;;;;;;;16.80;3.40;;;;;;;21.53;73.20;100129.73;54944;1275;1015816;-63
2023/10/03 09:06:38;;;;;;;17.60;3.80;;;;;;;21.65;73.10;100126.43;54931;1275;1015668;-62
2023/10/03 09:09:13;;;;;;;18.00;3.50;;;;;;;21.80;73.02;100127.83;54933;1275;1016070;-63
2023/10/03 09:11:51;;;;;;;14.60;3.20;;;;;;;21.91;72.56;100120.96;54937;1275;1016096;-62
2023/10/03 09:14:22;;;;;;;14.80;2.90;;;;;;;22.02;71.84;100116.39;54936;1269;1015673;-61
2023/10/03 09:16:54;;;;;;;13.80;3.80;;;;;;;22.13;71.65;100116.48;54942;1275;1016104;-61
2023/10/03 09:19:43;;;;;;;17.30;3.50;;;;;;;22.18;71.34;100119.23;54946;1275;1015730;-62
2023/10/03 09:22:30;;;;;;;12.90;2.80;;;;;;;22.29;70.11;100109.55;54938;1275;1015370;-61
2023/10/03 09:25:02;;;;;;;15.90;4.10;;;;;;;22.46;70.27;100100.92;54948;1275;1015734;-62
2023/10/03 09:27:33;;;;;;;12.00;2.90;;;;;;;22.62;69.50;100096.39;54960;1275;1016172;-62
2023/10/03 09:30:10;;;;;;;16.60;3.10;;;;;;;22.77;69.11;100101.86;54905;1275;1015793;-61
2023/10/03 09:32:41;;;;;;;15.20;3.00;;;;;;;22.94;68.84;100092.71;54923;1275;1015393;-61
2023/10/03 09:35:12;;;;;;;15.70;2.80;;;;;;;23.05;68.57;100092.78;54941;1275;1016346;-61
2023/10/03 09:37:48;;;;;;;15.80;3.70;;;;;;;23.13;67.78;100087.96;54952;1275;1015371;-63
2023/10/03 09:40:19;;;;;;;12.50;2.70;;;;;;;23.19;67.13;100084.89;54914;1275;1015977;-61
2023/10/03 09:42:50;;;;;;;16.40;2.90;;;;;;;23.30;67.40;100080.85;54960;1275;1015810;-63
2023/10/03 09:45:25;;;;;;;16.00;2.80;;;;;;;23.36;66.90;100079.04;54940;1271;1016138;-62
2023/10/03 09:48:05;;;;;;;16.70;3.80;;;;;;;23.44;66.78;100069.79;54933;1275;1015657;-61
2023/10/03 09:50:37;;;;;;;12.60;2.80;;;;;;;23.56;65.50;100069.46;54931;1275;1015826;-61
2023/10/03 09:53:09;;;;;;;15.40;2.90;;;;;;;23.67;64.20;100067.77;54924;1275;1016027;-62
2023/10/03 09:55:46;;;;;;;14.70;2.90;;;;;;;23.82;64.13;100066.83;54963;1275;1015865;-62
2023/10/03 09:58:24;;;;;;;14.30;2.60;;;;;;;23.92;63.44;100066.64;54933;1275;1016382;-61
2023/10/03 10:00:56;;;;;;;15.20;3.20;;;;;;;24.03;63.39;100069.64;54926;1275;1015709;-62
2023/10/03 10:03:30;;;;;;;15.70;2.80;;;;;;;24.19;62.72;100067.54;54935;1272;1015689;-62
2023/10/03 10:06:15;;;;;;;13.10;3.30;;;;;;;24.35;60.97;100067.61;54920;1275;1015723;-62
2023/10/03 10:08:57;;;;;;;14.40;2.80;;;;;;;24.46;61.00;100068.91;54937;1273;1015707;-62
2023/10/03 10:11:30;;;;;;;13.20;3.30;;;;;;;24.53;59.97;100061.89;54951;1275;1016045;-63
2023/10/03 10:14:09;;;;;;;11.60;2.90;;;;;;;24.59;59.79;100054.35;54944;1275;1015245;-61
2023/10/03 10:17:20;;;;;;;15.10;3.70;;;;;;;24.62;59.23;100051.64;54935;1271;1015728;-61
2023/10/03 10:20:13;;;;;;;15.50;3.40;;;;;;;24.74;58.66;100048.81;54952;1275;1015469;-61
2023/10/03 10:23:24;;;;;;;16.80;3.00;;;;;;;24.86;58.46;100044.44;54939;1275;1015396;-61
2023/10/03 10:26:01;;;;;;;15.70;2.70;;;;;;;24.95;57.65;100040.23;54694;1280;1015661;-61
2023/10/03 10:28:37;;;;;;;14.40;3.00;;;;;;;25.05;57.66;100040.05;54691;1280;1015969;-61
2023/10/03 10:31:30;;;;;;;13.20;2.50;;;;;;;25.15;57.62;100036.23;54686;1281;1015737;-62
2023/10/03 10:34:46;;;;;;;13.70;3.10;;;;;;;25.26;56.26;100035.88;54711;1280;1015608;-62
2023/10/03 10:37:18;;;;;;;11.20;2.90;;;;;;;25.39;55.51;100033.65;54564;1285;1015855;-62
2023/10/03 10:40:17;;;;;;;9.70;2.40;;;;;;;25.51;55.41;100036.31;54587;1285;1015710;-62
2023/10/03 10:43:04;;;;;;;12.00;2.60;;;;;;;25.65;54.17;100031.19;54592;1285;1015952;-62
2023/10/03 10:45:38;;;;;;;13.20;2.60;;;;;;;25.68;53.24;100020.75;54585;1285;1016228;-61
2023/10/03 10:48:11;;;;;;;13.30;2.90;;;;;;;25.69;53.14;100018.34;54594;1284;1015301;-62
2023/10/03 10:51:10;;;;;;;12.50;2.60;;;;;;;25.72;52.89;100011.45;54602;1285;1015905;-62
2023/10/03 10:53:43;;;;;;;14.60;3.10;;;;;;;25.77;52.22;100008.56;54592;1285;1015830;-62
2023/10/03 10:56:15;;;;;;;15.10;2.50;;;;;;;25.84;51.65;100008.52;54577;1283;1015725;-62
2023/10/03 10:58:51;;;;;;;11.80;2.80;;;;;;;25.88;52.03;100005.90;54519;1284;1016017;-61
2023/10/03 11:01:23;;;;;;;13.70;2.90;;;;;;;25.91;51.47;100003.98;54544;1281;1015592;-62
2023/10/03 11:03:54;;;;;;;13.20;2.70;;;;;;;25.97;51.19;100000.45;54388;1279;1015855;-59
2023/10/03 11:06:26;;;;;;;12.70;2.60;;;;;;;25.99;51.15;99997.94;52643;1264;1016127;-59
2023/10/03 11:08:57;;;;;;;13.70;2.90;;;;;;;26.02;50.88;99987.15;52676;1279;1016490;-59
2023/10/03 11:11:39;;;;;;;15.40;2.90;;;;;;;26.09;50.70;99980.05;52646;1272;1016502;-59
2023/10/03 11:14:10;;;;;;;15.30;4.50;;;;;;;26.15;50.69;99979.39;54810;1275;1015466;-60
2023/10/03 11:16:42;;;;;;;13.10;2.50;;;;;;;26.18;50.55;99976.15;54928;1275;1016183;-59
2023/10/03 11:19:13;;;;;;;13.50;3.10;;;;;;;26.20;50.27;99971.84;54901;1270;1015699;-62
2023/10/03 11:21:44;;;;;;;13.40;2.70;;;;;;;26.24;50.30;99966.60;54933;1275;1015446;-61
2023/10/03 11:24:22;;;;;;;12.40;2.80;;;;;;;26.29;49.81;99969.41;54945;1275;1015263;-62
2023/10/03 11:26:55;;;;;;;12.90;3.20;;;;;;;26.31;49.54;99959.22;54945;1275;1015888;-62
2023/10/03 11:29:45;;;;;;;13.60;3.30;;;;;;;26.34;49.93;99955.30;54925;1275;1015811;-62